createdAt,value
2023-05-17T00:01:46.115Z,95.70
2023-05-17T00:04:13.300Z,95.90
2023-05-17T00:06:41.037Z,96.00
2023-05-17T00:09:08.087Z,96.10
2023-05-17T00:11:35.367Z,96.20
2023-05-17T00:14:02.458Z,96.20
2023-05-17T00:16:29.400Z,96.20
2023-05-17T00:18:56.395Z,96.40
2023-05-17T00:21:23.296Z,96.30
2023-05-17T00:23:50.272Z,96.20
2023-05-17T00:26:17.073Z,96.20
2023-05-17T00:28:44.715Z,96.00
2023-05-17T00:31:11.616Z,95.80
2023-05-17T00:33:38.612Z,95.80
2023-05-17T00:36:05.781Z,95.80
2023-05-17T00:38:32.780Z,95.60
2023-05-17T00:40:59.748Z,95.60
2023-05-17T00:43:27.070Z,95.80
2023-05-17T00:45:53.948Z,96.10
2023-05-17T00:48:26.147Z,96.10
2023-05-17T00:50:54.874Z,96.00
2023-05-17T00:53:22.225Z,96.10
2023-05-17T00:55:49.433Z,96.10
2023-05-17T00:58:16.862Z,96.20
2023-05-17T01:00:44.743Z,96.30
2023-05-17T01:03:12.383Z,96.50
2023-05-17T01:05:39.427Z,96.20
2023-05-17T01:08:06.257Z,96.40
2023-05-17T01:10:56.885Z,96.60
2023-05-17T01:13:53.955Z,96.70
2023-05-17T01:16:44.385Z,96.40
2023-05-17T01:19:14.356Z,96.40
2023-05-17T01:22:08.365Z,96.40
2023-05-17T01:24:44.343Z,96.30
2023-05-17T01:27:12.762Z,96.10
2023-05-17T01:29:41.590Z,96.30
2023-05-17T01:32:10.317Z,96.50
2023-05-17T01:34:37.342Z,96.70
2023-05-17T01:37:04.448Z,96.80
2023-05-17T01:39:31.396Z,96.70
2023-05-17T01:42:13.767Z,96.40
2023-05-17T01:45:11.829Z,96.70
2023-05-17T01:48:06.590Z,96.90
2023-05-17T01:50:36.200Z,97.00
2023-05-17T01:53:08.239Z,97.00
2023-05-17T01:56:03.818Z,97.00
2023-05-17T01:58:33.345Z,97.00
2023-05-17T02:01:01.323Z,97.10
2023-05-17T02:03:29.104Z,97.20
2023-05-17T02:05:56.088Z,97.30
2023-05-17T02:08:23.290Z,97.30
2023-05-17T02:10:51.431Z,97.30
2023-05-17T02:13:18.406Z,97.40
2023-05-17T02:15:45.435Z,97.30
2023-05-17T02:18:13.001Z,97.40
2023-05-17T02:23:30.272Z,97.30
2023-05-17T02:25:57.202Z,97.10
2023-05-17T02:28:24.082Z,97.20
2023-05-17T02:30:51.030Z,97.20
2023-05-17T02:33:18.134Z,97.20
2023-05-17T02:35:45.132Z,97.20
2023-05-17T02:38:12.005Z,97.30
2023-05-17T02:40:42.300Z,97.30
2023-05-17T02:43:09.215Z,97.30
2023-05-17T02:45:36.894Z,97.30
2023-05-17T02:48:03.897Z,97.20
2023-05-17T02:50:30.902Z,97.20
2023-05-17T02:52:58.721Z,97.20
2023-05-17T02:55:25.876Z,97.20
2023-05-17T02:57:53.048Z,97.20
2023-05-17T03:00:21.503Z,97.10
2023-05-17T03:02:48.524Z,97.10
2023-05-17T03:05:15.741Z,97.10
2023-05-17T03:07:48.073Z,97.10
2023-05-17T03:10:14.959Z,97.30
2023-05-17T03:12:45.003Z,97.40
2023-05-17T03:15:13.651Z,97.30
2023-05-17T03:17:40.815Z,97.40
2023-05-17T03:20:09.549Z,97.50
2023-05-17T03:22:36.593Z,97.50
2023-05-17T03:25:05.207Z,97.40
2023-05-17T03:27:37.083Z,97.50
2023-05-17T03:30:05.843Z,97.50
2023-05-17T03:32:34.706Z,97.60
2023-05-17T03:35:01.966Z,97.70
2023-05-17T03:37:29.391Z,97.80
2023-05-17T03:39:56.420Z,97.80
2023-05-17T03:42:23.698Z,97.90
2023-05-17T03:44:51.890Z,98.30
2023-05-17T03:47:23.740Z,97.90
2023-05-17T03:49:51.495Z,98.00
2023-05-17T03:52:18.668Z,98.00
2023-05-17T03:54:48.075Z,98.00
2023-05-17T03:57:16.392Z,98.10
2023-05-17T03:59:43.314Z,98.00
2023-05-17T04:02:10.681Z,98.10
2023-05-17T04:04:38.313Z,98.20
2023-05-17T04:07:05.419Z,98.20
2023-05-17T04:09:35.030Z,98.10
2023-05-17T04:12:02.022Z,97.80
2023-05-17T04:14:29.740Z,97.70
2023-05-17T04:16:59.528Z,97.80
2023-05-17T04:19:26.570Z,97.90
2023-05-17T04:21:54.862Z,97.90
2023-05-17T04:24:24.114Z,98.10
2023-05-17T04:26:52.598Z,98.30
2023-05-17T04:29:24.249Z,98.40
2023-05-17T04:31:51.500Z,98.20
2023-05-17T04:34:18.548Z,98.20
2023-05-17T04:36:45.884Z,98.10
2023-05-17T04:39:12.745Z,98.10
2023-05-17T04:41:40.628Z,97.70
2023-05-17T04:44:11.320Z,97.70
2023-05-17T04:46:38.318Z,97.70
2023-05-17T04:49:05.251Z,97.60
2023-05-17T04:51:32.286Z,97.40
2023-05-17T04:54:01.908Z,97.30
2023-05-17T04:56:31.263Z,97.30
2023-05-17T04:58:58.601Z,97.30
2023-05-17T05:01:25.609Z,97.40
2023-05-17T05:03:52.710Z,97.30
2023-05-17T05:06:19.914Z,97.30
2023-05-17T05:08:47.050Z,97.10
2023-05-17T05:11:15.269Z,97.20
2023-05-17T05:13:42.591Z,97.40
2023-05-17T05:16:09.549Z,97.50
2023-05-17T05:18:37.622Z,97.50
2023-05-17T05:21:04.815Z,97.50
2023-05-17T05:23:32.383Z,97.40
2023-05-17T05:25:59.360Z,97.30
2023-05-17T05:28:27.401Z,97.10
2023-05-17T05:30:59.497Z,96.90
2023-05-17T05:33:31.979Z,97.00
2023-05-17T05:35:59.061Z,96.90
2023-05-17T05:38:26.870Z,97.00
2023-05-17T05:40:54.085Z,97.10
2023-05-17T05:43:21.021Z,97.00
2023-05-17T05:45:48.165Z,97.10
2023-05-17T05:48:15.942Z,97.10
2023-05-17T05:50:44.571Z,97.00
2023-05-17T05:53:19.001Z,97.00
2023-05-17T05:55:55.552Z,96.90
2023-05-17T05:58:22.495Z,96.80
2023-05-17T06:00:50.771Z,96.90
2023-05-17T06:03:17.713Z,96.80
2023-05-17T06:05:44.713Z,96.80
2023-05-17T06:08:11.609Z,96.80
2023-05-17T06:10:38.466Z,96.80
2023-05-17T06:13:05.346Z,96.70
2023-05-17T06:15:32.355Z,96.70
2023-05-17T06:17:59.671Z,96.50
2023-05-17T06:20:26.797Z,96.10
2023-05-17T06:22:53.852Z,96.20
2023-05-17T06:25:20.887Z,96.40
2023-05-17T06:27:47.736Z,96.50
2023-05-17T06:30:15.089Z,96.30
2023-05-17T06:32:45.092Z,96.40
2023-05-17T06:35:14.727Z,96.60
2023-05-17T06:37:42.864Z,96.60
2023-05-17T06:40:16.646Z,96.60
2023-05-17T06:42:44.526Z,96.50
2023-05-17T06:45:12.512Z,96.20
2023-05-17T06:47:39.553Z,96.20
2023-05-17T06:50:08.680Z,96.50
2023-05-17T06:52:36.112Z,96.30
2023-05-17T06:55:03.134Z,96.30
2023-05-17T06:57:30.227Z,96.50
2023-05-17T06:59:57.259Z,96.60
2023-05-17T07:02:24.525Z,96.60
2023-05-17T07:04:51.492Z,97.40
2023-05-17T07:07:18.533Z,97.90
2023-05-17T07:09:45.569Z,97.40
2023-05-17T07:12:12.567Z,97.20
2023-05-17T07:14:39.620Z,97.00
2023-05-17T07:17:06.851Z,96.90
2023-05-17T07:19:33.960Z,96.70
2023-05-17T07:22:01.090Z,96.60
2023-05-17T07:24:28.324Z,96.70
2023-05-17T07:26:55.297Z,96.50
2023-05-17T07:29:22.275Z,96.80
2023-05-17T07:31:49.145Z,96.10
2023-05-17T07:34:16.161Z,95.90
2023-05-17T07:36:43.131Z,96.00
2023-05-17T07:39:10.146Z,95.90
2023-05-17T07:41:37.316Z,95.90
2023-05-17T07:44:04.283Z,96.00
2023-05-17T07:46:31.207Z,96.20
2023-05-17T07:48:58.947Z,96.10
2023-05-17T07:51:26.396Z,96.10
2023-05-17T07:53:53.486Z,96.10
2023-05-17T07:56:20.543Z,96.10
2023-05-17T07:58:47.455Z,96.00
2023-05-17T08:01:14.461Z,96.10
2023-05-17T08:03:48.178Z,96.10
2023-05-17T08:06:18.453Z,96.20
2023-05-17T08:08:45.759Z,96.30
2023-05-17T08:11:13.687Z,95.70
2023-05-17T08:13:40.630Z,95.40
2023-05-17T08:16:14.053Z,95.40
2023-05-17T08:18:45.000Z,95.40
2023-05-17T08:21:12.076Z,94.90
2023-05-17T08:23:39.419Z,95.10
2023-05-17T08:26:06.815Z,94.60
2023-05-17T08:28:33.871Z,94.50
2023-05-17T08:31:01.174Z,94.50
2023-05-17T08:33:28.557Z,94.70
2023-05-17T08:35:57.724Z,94.80
2023-05-17T08:38:24.639Z,94.90
2023-05-17T08:40:56.216Z,95.10
2023-05-17T08:43:27.371Z,95.20
2023-05-17T08:45:57.772Z,95.10
2023-05-17T08:48:31.275Z,95.00
2023-05-17T08:50:59.981Z,94.80
2023-05-17T08:53:27.132Z,94.80
2023-05-17T08:56:00.716Z,94.80
2023-05-17T08:58:36.019Z,94.70
2023-05-17T09:01:09.829Z,94.60
2023-05-17T09:03:41.102Z,94.60
2023-05-17T09:06:10.091Z,94.80
2023-05-17T09:08:38.114Z,94.90
2023-05-17T09:11:05.332Z,95.20
2023-05-17T09:13:32.184Z,94.70
2023-05-17T09:15:59.131Z,94.80
2023-05-17T09:18:33.250Z,94.90
2023-05-17T09:21:07.168Z,95.00
2023-05-17T09:23:34.212Z,94.80
2023-05-17T09:26:06.331Z,94.60
2023-05-17T09:28:39.516Z,95.00
2023-05-17T09:31:12.578Z,94.90
2023-05-17T09:33:48.361Z,94.90
2023-05-17T09:36:23.311Z,95.10
2023-05-17T09:38:55.269Z,95.30
2023-05-17T09:41:26.714Z,95.60
2023-05-17T09:43:53.752Z,95.50
2023-05-17T09:46:20.965Z,95.20
2023-05-17T09:48:53.988Z,95.00
2023-05-17T09:51:34.619Z,95.10
2023-05-17T09:54:02.106Z,95.20
2023-05-17T09:56:32.145Z,95.10
2023-05-17T09:59:03.352Z,94.80
2023-05-17T10:01:34.294Z,94.80
2023-05-17T10:04:05.225Z,95.10
2023-05-17T10:06:45.412Z,95.20
2023-05-17T10:09:18.747Z,95.20
2023-05-17T10:11:49.486Z,95.40
2023-05-17T10:14:27.460Z,94.90
2023-05-17T10:16:55.163Z,94.50
2023-05-17T10:19:23.528Z,94.40
2023-05-17T10:21:53.073Z,94.60
2023-05-17T10:24:21.839Z,94.70
2023-05-17T10:26:52.385Z,94.70
2023-05-17T10:29:22.438Z,94.60
2023-05-17T10:31:52.795Z,94.60
2023-05-17T10:34:21.086Z,94.60
2023-05-17T10:36:50.219Z,94.50
2023-05-17T10:39:17.944Z,94.00
2023-05-17T10:41:48.012Z,93.50
2023-05-17T10:44:18.212Z,93.30
2023-05-17T10:46:56.156Z,93.10
2023-05-17T10:49:29.555Z,93.10
2023-05-17T10:52:11.552Z,93.30
2023-05-17T10:54:42.798Z,93.30
2023-05-17T10:57:38.969Z,93.20
2023-05-17T11:00:19.352Z,93.30
2023-05-17T11:02:48.674Z,93.30
2023-05-17T11:05:26.205Z,93.20
2023-05-17T11:08:11.788Z,93.20
2023-05-17T11:10:38.981Z,93.60
2023-05-17T11:13:25.419Z,93.80
2023-05-17T11:16:07.816Z,93.90
2023-05-17T11:18:55.337Z,93.90
2023-05-17T11:21:23.060Z,94.00
2023-05-17T11:23:56.675Z,94.00
2023-05-17T11:26:36.869Z,94.00
2023-05-17T11:29:08.959Z,93.90
2023-05-17T11:31:37.155Z,94.20
2023-05-17T11:34:05.314Z,94.30
2023-05-17T11:36:48.390Z,94.30
2023-05-17T11:39:21.042Z,94.40
2023-05-17T11:41:50.769Z,94.50
2023-05-17T11:44:26.964Z,94.80
2023-05-17T11:47:15.784Z,95.00
2023-05-17T11:49:42.835Z,94.90
2023-05-17T11:52:09.850Z,94.80
2023-05-17T11:54:39.001Z,95.00
2023-05-17T11:57:07.130Z,95.20
2023-05-17T11:59:40.864Z,95.20
2023-05-17T12:02:08.589Z,95.20
2023-05-17T12:04:37.824Z,95.00
2023-05-17T12:07:05.904Z,94.90
2023-05-17T12:09:33.078Z,95.00
2023-05-17T12:12:04.755Z,94.90
2023-05-17T12:14:32.087Z,94.90
2023-05-17T12:17:02.628Z,94.90
2023-05-17T12:19:30.501Z,94.60
2023-05-17T12:22:08.764Z,94.30
2023-05-17T12:24:44.810Z,94.10
2023-05-17T12:27:11.875Z,93.50
2023-05-17T12:29:39.992Z,93.00
2023-05-17T12:32:10.072Z,92.70
2023-05-17T12:34:37.428Z,92.50
2023-05-17T12:37:10.126Z,92.30
2023-05-17T12:39:37.283Z,92.10
2023-05-17T12:42:04.473Z,92.00
2023-05-17T12:44:32.583Z,91.30
2023-05-17T12:47:02.737Z,91.40
2023-05-17T12:49:29.732Z,91.70
2023-05-17T12:51:56.691Z,91.60
2023-05-17T12:54:28.854Z,91.70
2023-05-17T12:56:56.675Z,91.70
2023-05-17T12:59:28.919Z,92.30
2023-05-17T13:01:58.164Z,92.30
2023-05-17T13:04:34.052Z,92.50
2023-05-17T13:07:03.705Z,92.80
2023-05-17T13:09:32.738Z,92.90
2023-05-17T13:12:04.868Z,92.90
2023-05-17T13:14:47.228Z,92.90
2023-05-17T13:17:39.382Z,92.90
2023-05-17T13:20:10.486Z,92.60
2023-05-17T13:22:48.161Z,92.30
2023-05-17T13:25:15.998Z,92.40
2023-05-17T13:27:46.925Z,92.50
2023-05-17T13:30:14.871Z,92.70
2023-05-17T13:32:42.010Z,92.80
2023-05-17T13:35:09.370Z,92.60
2023-05-17T13:37:36.535Z,92.70
2023-05-17T13:40:04.652Z,92.30
2023-05-17T13:42:32.139Z,92.40
2023-05-17T13:45:01.493Z,92.30
2023-05-17T13:47:32.149Z,91.90
2023-05-17T13:50:03.921Z,92.30
2023-05-17T13:52:33.569Z,92.40
2023-05-17T13:55:00.689Z,92.40
2023-05-17T13:57:28.098Z,92.60
2023-05-17T13:59:55.060Z,92.70
2023-05-17T14:02:21.937Z,92.60
2023-05-17T14:04:49.172Z,92.00
2023-05-17T14:07:16.196Z,92.00
2023-05-17T14:09:43.606Z,92.10
2023-05-17T14:12:12.051Z,92.10
2023-05-17T14:14:39.010Z,92.20
2023-05-17T14:17:06.184Z,92.20
2023-05-17T14:19:33.369Z,92.30
2023-05-17T14:22:00.847Z,91.80
2023-05-17T14:24:27.842Z,91.50
2023-05-17T14:26:54.748Z,91.30
2023-05-17T14:29:22.930Z,90.80
2023-05-17T14:31:49.869Z,90.80
2023-05-17T14:34:16.972Z,90.70
2023-05-17T14:36:44.076Z,90.20
2023-05-17T14:39:11.100Z,89.10
2023-05-17T14:41:44.112Z,89.00
2023-05-17T14:44:13.266Z,88.90
2023-05-17T14:46:46.093Z,89.20
2023-05-17T14:49:19.290Z,89.80
2023-05-17T14:51:51.068Z,89.70
2023-05-17T14:54:24.115Z,90.00
2023-05-17T14:56:52.295Z,90.00
2023-05-17T14:59:22.204Z,90.10
2023-05-17T15:01:49.898Z,90.10
2023-05-17T15:04:20.600Z,90.20
2023-05-17T15:07:03.460Z,90.30
2023-05-17T15:09:32.995Z,90.30
2023-05-17T15:12:02.917Z,90.20
2023-05-17T15:14:33.366Z,90.10
2023-05-17T15:17:02.623Z,90.20
2023-05-17T15:19:31.808Z,90.30
2023-05-17T15:22:01.096Z,90.30
2023-05-17T15:24:31.356Z,90.30
2023-05-17T15:26:59.267Z,90.40
2023-05-17T15:29:26.694Z,90.40
2023-05-17T15:31:54.081Z,90.40
2023-05-17T15:34:26.679Z,90.30
2023-05-17T15:36:56.103Z,90.30
2023-05-17T15:39:23.261Z,90.50
2023-05-17T15:41:50.672Z,90.60
2023-05-17T15:44:18.791Z,90.60
2023-05-17T15:46:46.348Z,90.40
2023-05-17T15:49:13.439Z,89.60
2023-05-17T15:51:40.440Z,88.80
2023-05-17T15:54:07.635Z,88.70
2023-05-17T15:56:34.794Z,88.40
2023-05-17T15:59:02.874Z,88.00
2023-05-17T16:01:34.216Z,87.20
2023-05-17T16:04:02.664Z,86.30
2023-05-17T16:06:34.915Z,86.10
2023-05-17T16:09:03.239Z,86.70
2023-05-17T16:11:30.388Z,86.80
2023-05-17T16:13:58.098Z,86.90
2023-05-17T16:16:25.309Z,87.00
2023-05-17T16:18:52.315Z,86.90
2023-05-17T16:21:20.260Z,86.40
2023-05-17T16:23:47.433Z,86.00
2023-05-17T16:26:14.637Z,86.40
2023-05-17T16:28:41.736Z,86.80
2023-05-17T16:31:09.088Z,86.70
2023-05-17T16:33:36.656Z,86.60
2023-05-17T16:36:05.121Z,86.20
2023-05-17T16:38:32.057Z,86.50
2023-05-17T16:41:03.295Z,86.90
2023-05-17T16:43:31.221Z,87.20
2023-05-17T16:45:58.363Z,87.30
2023-05-17T16:48:25.592Z,87.10
2023-05-17T16:50:52.534Z,86.50
2023-05-17T16:53:24.008Z,86.90
2023-05-17T16:55:51.071Z,86.80
2023-05-17T16:58:18.056Z,86.90
2023-05-17T17:00:45.102Z,86.90
2023-05-17T17:03:12.150Z,87.20
2023-05-17T17:05:39.205Z,87.00
2023-05-17T17:08:06.365Z,86.70
2023-05-17T17:10:34.732Z,86.80
2023-05-17T17:13:01.996Z,86.20
2023-05-17T17:15:29.574Z,86.60
2023-05-17T17:17:56.566Z,86.70
2023-05-17T17:20:23.682Z,86.60
2023-05-17T17:22:51.223Z,86.50
2023-05-17T17:25:19.290Z,86.50
2023-05-17T17:27:47.135Z,86.50
2023-05-17T17:30:14.395Z,86.60
2023-05-17T17:32:41.688Z,87.10
2023-05-17T17:35:09.510Z,86.40
2023-05-17T17:37:36.820Z,85.60
2023-05-17T17:40:04.115Z,84.50
2023-05-17T17:42:32.359Z,83.60
2023-05-17T17:44:59.249Z,82.90
2023-05-17T17:47:26.350Z,83.30
2023-05-17T17:49:53.394Z,83.10
2023-05-17T17:52:20.586Z,83.50
2023-05-17T17:54:53.021Z,84.10
2023-05-17T17:57:21.976Z,84.50
2023-05-17T17:59:53.950Z,85.30
2023-05-17T18:02:29.462Z,86.10
2023-05-17T18:04:59.434Z,86.50
2023-05-17T18:07:26.784Z,86.70
2023-05-17T18:09:53.916Z,87.20
2023-05-17T18:12:21.001Z,86.90
2023-05-17T18:14:48.004Z,87.50
2023-05-17T18:17:19.588Z,87.90
2023-05-17T18:19:48.573Z,88.50
2023-05-17T18:22:19.165Z,88.80
2023-05-17T18:24:46.337Z,89.20
2023-05-17T18:27:14.371Z,89.60
2023-05-17T18:29:41.962Z,89.80
2023-05-17T18:32:09.723Z,90.00
2023-05-17T18:34:37.089Z,90.20
2023-05-17T18:37:04.638Z,90.30
2023-05-17T18:39:31.691Z,90.50
2023-05-17T18:41:58.664Z,90.50
2023-05-17T18:44:25.854Z,90.70
2023-05-17T18:46:53.959Z,90.90
2023-05-17T18:49:21.553Z,91.20
2023-05-17T18:51:48.616Z,91.30
2023-05-17T18:54:16.384Z,91.60
2023-05-17T18:56:44.037Z,91.70
2023-05-17T18:59:13.627Z,91.80
2023-05-17T19:01:41.195Z,91.70
2023-05-17T19:04:08.640Z,91.90
2023-05-17T19:06:36.169Z,91.60
2023-05-17T19:09:03.492Z,91.20
2023-05-17T19:11:30.813Z,91.10
2023-05-17T19:13:58.542Z,91.30
2023-05-17T19:16:25.842Z,91.30
2023-05-17T19:18:53.343Z,91.30
2023-05-17T19:21:20.988Z,91.10
2023-05-17T19:23:47.954Z,91.00
2023-05-17T19:26:15.431Z,90.90
2023-05-17T19:28:42.464Z,90.80
2023-05-17T19:31:09.809Z,90.80
2023-05-17T19:33:37.797Z,91.00
2023-05-17T19:36:04.970Z,90.80
2023-05-17T19:38:33.307Z,89.80
2023-05-17T19:41:01.503Z,89.00
2023-05-17T19:43:28.845Z,88.10
2023-05-17T19:45:56.116Z,87.00
2023-05-17T19:48:24.397Z,87.00
2023-05-17T19:50:56.635Z,86.90
2023-05-17T19:53:24.213Z,86.60
2023-05-17T19:55:51.206Z,87.00
2023-05-17T19:58:18.257Z,87.90
2023-05-17T20:00:45.386Z,88.80
2023-05-17T20:03:12.516Z,88.90
2023-05-17T20:05:39.584Z,89.40
2023-05-17T20:08:08.038Z,90.10
2023-05-17T20:10:35.466Z,90.40
2023-05-17T20:13:02.704Z,90.60
2023-05-17T20:15:29.650Z,90.80
2023-05-17T20:17:56.558Z,91.00
2023-05-17T20:20:23.928Z,91.10
2023-05-17T20:22:51.021Z,91.20
2023-05-17T20:25:18.076Z,91.30
2023-05-17T20:27:45.069Z,91.40
2023-05-17T20:30:12.482Z,91.40
2023-05-17T20:32:39.404Z,91.10
2023-05-17T20:35:06.954Z,91.20
2023-05-17T20:37:34.182Z,91.00
2023-05-17T20:40:01.189Z,90.40
2023-05-17T20:42:29.071Z,90.60
2023-05-17T20:44:57.943Z,90.60
2023-05-17T20:47:25.381Z,90.80
2023-05-17T20:49:52.450Z,90.80
2023-05-17T20:52:31.342Z,90.80
2023-05-17T20:55:05.561Z,90.90
2023-05-17T20:57:32.406Z,91.10
2023-05-17T20:59:59.417Z,91.10
2023-05-17T21:02:26.699Z,90.90
2023-05-17T21:04:54.714Z,90.90
2023-05-17T21:07:26.491Z,90.70
2023-05-17T21:09:53.491Z,91.10
2023-05-17T21:12:22.394Z,90.70
2023-05-17T21:15:04.274Z,90.20
2023-05-17T21:17:37.722Z,90.30
2023-05-17T21:20:05.120Z,90.20
2023-05-17T21:22:32.069Z,90.30
2023-05-17T21:24:59.145Z,90.40
2023-05-17T21:27:26.169Z,90.60
2023-05-17T21:29:53.107Z,90.50
2023-05-17T21:32:20.148Z,90.50
2023-05-17T21:34:47.169Z,89.90
2023-05-17T21:37:14.601Z,90.10
2023-05-17T21:39:42.040Z,89.80
2023-05-17T21:42:09.175Z,90.00
2023-05-17T21:44:36.159Z,90.20
2023-05-17T21:47:03.252Z,89.90
2023-05-17T21:49:30.842Z,90.10
2023-05-17T21:51:58.607Z,90.20
2023-05-17T21:54:26.279Z,90.60
2023-05-17T21:56:53.488Z,90.90
2023-05-17T21:59:20.549Z,90.90
2023-05-17T22:01:47.945Z,90.60
2023-05-17T22:04:14.984Z,90.90
2023-05-17T22:06:42.069Z,91.00
2023-05-17T22:09:09.605Z,90.80
2023-05-17T22:11:38.757Z,90.70
2023-05-17T22:14:07.382Z,90.80
2023-05-17T22:16:36.038Z,90.90
2023-05-17T22:19:05.729Z,90.80
2023-05-17T22:21:33.162Z,90.70
2023-05-17T22:24:00.278Z,90.50
2023-05-17T22:26:27.882Z,90.70
2023-05-17T22:28:55.866Z,90.70
2023-05-17T22:31:22.976Z,90.30
2023-05-17T22:33:52.266Z,90.30
2023-05-17T22:36:22.144Z,90.40
2023-05-17T22:38:49.412Z,90.50
2023-05-17T22:41:16.823Z,90.70
2023-05-17T22:43:44.081Z,90.70
2023-05-17T22:46:11.077Z,90.80
2023-05-17T22:48:39.355Z,91.00
2023-05-17T22:51:07.074Z,91.10
2023-05-17T22:53:35.218Z,90.90
2023-05-17T22:56:03.117Z,91.10
2023-05-17T22:58:30.666Z,91.10
2023-05-17T23:00:58.148Z,91.10
2023-05-17T23:03:25.973Z,91.20
2023-05-17T23:06:02.496Z,91.30
2023-05-17T23:08:30.753Z,91.30
2023-05-17T23:10:58.470Z,91.40
2023-05-17T23:13:26.511Z,91.50
2023-05-17T23:15:54.221Z,91.50
2023-05-17T23:18:21.830Z,91.30
2023-05-17T23:20:49.430Z,91.30
2023-05-17T23:23:17.507Z,91.00
2023-05-17T23:25:48.886Z,91.00
2023-05-17T23:28:16.590Z,91.10
2023-05-17T23:30:44.879Z,91.00
2023-05-17T23:33:12.126Z,91.10
2023-05-17T23:35:39.700Z,91.40
2023-05-17T23:38:07.453Z,91.00
2023-05-17T23:40:36.057Z,91.10
2023-05-17T23:43:09.069Z,90.90
2023-05-17T23:45:36.233Z,90.90
2023-05-17T23:48:03.559Z,90.80
2023-05-17T23:50:30.823Z,90.60
2023-05-17T23:52:58.584Z,90.60
2023-05-17T23:55:25.905Z,90.70
2023-05-17T23:57:54.265Z,90.60
